sensor_id;sensor_type;location;lat;lon;timestamp;P1;durP1;ratioP1;P2;durP2;ratioP2
24090;SDS011;12272;52.426;17.100;2024-01-15T00:03:05;4.37;;;3.23;;
24090;SDS011;12272;52.426;17.100;2024-01-15T00:08:07;4.13;;;3.03;;
24090;SDS011;12272;52.426;17.100;2024-01-15T00:13:10;5.23;;;4.03;;
24090;SDS011;12272;52.426;17.100;2024-01-15T00:18:12;4.07;;;2.70;;
24090;SDS011;12272;52.426;17.100;2024-01-15T00:23:15;10.03;;;6.17;;
24090;SDS011;12272;52.426;17.100;2024-01-15T00:28:17;7.77;;;5.90;;
24090;SDS011;12272;52.426;17.100;2024-01-15T00:33:20;5.43;;;4.40;;
24090;SDS011;12272;52.426;17.100;2024-01-15T00:38:22;6.20;;;3.60;;
24090;SDS011;12272;52.426;17.100;2024-01-15T00:43:25;11.23;;;8.70;;
24090;SDS011;12272;52.426;17.100;2024-01-15T00:48:27;8.70;;;7.13;;
24090;SDS011;12272;52.426;17.100;2024-01-15T00:53:30;12.47;;;9.80;;
24090;SDS011;12272;52.426;17.100;2024-01-15T00:58:33;7.07;;;5.83;;
24090;SDS011;12272;52.426;17.100;2024-01-15T01:03:35;11.60;;;8.60;;
24090;SDS011;12272;52.426;17.100;2024-01-15T01:08:38;4.37;;;3.07;;
24090;SDS011;12272;52.426;17.100;2024-01-15T01:13:41;8.13;;;6.47;;
24090;SDS011;12272;52.426;17.100;2024-01-15T01:18:44;5.97;;;4.27;;
24090;SDS011;12272;52.426;17.100;2024-01-15T01:23:47;4.67;;;2.80;;
24090;SDS011;12272;52.426;17.100;2024-01-15T01:28:49;11.27;;;8.90;;
24090;SDS011;12272;52.426;17.100;2024-01-15T01:33:52;11.63;;;7.37;;
24090;SDS011;12272;52.426;17.100;2024-01-15T01:38:55;5.80;;;4.53;;
24090;SDS011;12272;52.426;17.100;2024-01-15T01:43:57;6.73;;;4.70;;
24090;SDS011;12272;52.426;17.100;2024-01-15T01:49:00;8.20;;;6.80;;
24090;SDS011;12272;52.426;17.100;2024-01-15T01:54:07;6.23;;;4.67;;
24090;SDS011;12272;52.426;17.100;2024-01-15T01:59:13;6.00;;;3.97;;
24090;SDS011;12272;52.426;17.100;2024-01-15T02:04:16;4.07;;;3.13;;
24090;SDS011;12272;52.426;17.100;2024-01-15T02:09:23;9.37;;;7.70;;
24090;SDS011;12272;52.426;17.100;2024-01-15T02:14:25;8.40;;;6.43;;
24090;SDS011;12272;52.426;17.100;2024-01-15T02:19:28;5.13;;;4.03;;
24090;SDS011;12272;52.426;17.100;2024-01-15T02:24:31;7.40;;;4.33;;
24090;SDS011;12272;52.426;17.100;2024-01-15T02:29:33;3.60;;;3.27;;
24090;SDS011;12272;52.426;17.100;2024-01-15T02:34:36;3.83;;;2.50;;
24090;SDS011;12272;52.426;17.100;2024-01-15T02:39:39;8.93;;;5.80;;
24090;SDS011;12272;52.426;17.100;2024-01-15T02:44:41;4.57;;;3.07;;
24090;SDS011;12272;52.426;17.100;2024-01-15T02:49:44;4.30;;;3.47;;
24090;SDS011;12272;52.426;17.100;2024-01-15T02:54:46;4.43;;;3.00;;
24090;SDS011;12272;52.426;17.100;2024-01-15T02:59:50;3.97;;;2.97;;
24090;SDS011;12272;52.426;17.100;2024-01-15T03:04:53;7.90;;;6.13;;
24090;SDS011;12272;52.426;17.100;2024-01-15T03:09:55;8.53;;;6.90;;
24090;SDS011;12272;52.426;17.100;2024-01-15T03:14:58;4.77;;;2.80;;
24090;SDS011;12272;52.426;17.100;2024-01-15T03:20:00;10.40;;;7.63;;
24090;SDS011;12272;52.426;17.100;2024-01-15T03:25:04;4.87;;;3.57;;
24090;SDS011;12272;52.426;17.100;2024-01-15T03:30:08;7.37;;;5.67;;
24090;SDS011;12272;52.426;17.100;2024-01-15T03:35:11;5.50;;;5.00;;
24090;SDS011;12272;52.426;17.100;2024-01-15T03:40:14;9.20;;;6.07;;
24090;SDS011;12272;52.426;17.100;2024-01-15T03:45:22;5.03;;;4.27;;
24090;SDS011;12272;52.426;17.100;2024-01-15T03:50:24;6.30;;;3.63;;
24090;SDS011;12272;52.426;17.100;2024-01-15T03:55:27;4.10;;;2.80;;
24090;SDS011;12272;52.426;17.100;2024-01-15T04:00:30;4.43;;;2.80;;
24090;SDS011;12272;52.426;17.100;2024-01-15T04:05:32;6.20;;;4.60;;
24090;SDS011;12272;52.426;17.100;2024-01-15T04:10:35;4.50;;;2.30;;
24090;SDS011;12272;52.426;17.100;2024-01-15T04:15:37;1.87;;;1.70;;
24090;SDS011;12272;52.426;17.100;2024-01-15T04:20:40;2.70;;;2.07;;
24090;SDS011;12272;52.426;17.100;2024-01-15T04:25:42;6.90;;;4.80;;
24090;SDS011;12272;52.426;17.100;2024-01-15T04:30:45;2.73;;;2.13;;
24090;SDS011;12272;52.426;17.100;2024-01-15T04:35:48;3.03;;;1.57;;
24090;SDS011;12272;52.426;17.100;2024-01-15T04:40:51;6.90;;;5.33;;
24090;SDS011;12272;52.426;17.100;2024-01-15T04:45:58;3.10;;;2.40;;
24090;SDS011;12272;52.426;17.100;2024-01-15T04:51:01;2.07;;;1.33;;
24090;SDS011;12272;52.426;17.100;2024-01-15T04:56:06;4.47;;;3.23;;
24090;SDS011;12272;52.426;17.100;2024-01-15T05:01:08;3.83;;;2.43;;
24090;SDS011;12272;52.426;17.100;2024-01-15T05:06:12;2.97;;;2.07;;
24090;SDS011;12272;52.426;17.100;2024-01-15T05:11:15;3.57;;;2.13;;
24090;SDS011;12272;52.426;17.100;2024-01-15T05:16:17;3.33;;;2.10;;
24090;SDS011;12272;52.426;17.100;2024-01-15T05:21:20;4.10;;;2.90;;
24090;SDS011;12272;52.426;17.100;2024-01-15T05:26:22;3.50;;;1.93;;
24090;SDS011;12272;52.426;17.100;2024-01-15T05:31:25;2.37;;;1.90;;
24090;SDS011;12272;52.426;17.100;2024-01-15T05:36:28;3.20;;;2.07;;
24090;SDS011;12272;52.426;17.100;2024-01-15T05:41:30;3.77;;;2.33;;
24090;SDS011;12272;52.426;17.100;2024-01-15T05:46:33;3.03;;;2.60;;
24090;SDS011;12272;52.426;17.100;2024-01-15T05:51:35;2.73;;;2.03;;
24090;SDS011;12272;52.426;17.100;2024-01-15T05:56:38;3.70;;;2.33;;
24090;SDS011;12272;52.426;17.100;2024-01-15T06:01:41;5.30;;;2.90;;
24090;SDS011;12272;52.426;17.100;2024-01-15T06:06:43;2.17;;;1.57;;
24090;SDS011;12272;52.426;17.100;2024-01-15T06:11:46;3.17;;;2.30;;
24090;SDS011;12272;52.426;17.100;2024-01-15T06:16:48;2.90;;;1.37;;
24090;SDS011;12272;52.426;17.100;2024-01-15T06:21:51;5.87;;;3.27;;
24090;SDS011;12272;52.426;17.100;2024-01-15T06:26:54;3.67;;;2.43;;
24090;SDS011;12272;52.426;17.100;2024-01-15T06:31:56;4.27;;;3.57;;
24090;SDS011;12272;52.426;17.100;2024-01-15T06:36:59;2.57;;;2.00;;
24090;SDS011;12272;52.426;17.100;2024-01-15T06:42:01;2.63;;;2.33;;
24090;SDS011;12272;52.426;17.100;2024-01-15T06:47:05;5.60;;;3.63;;
24090;SDS011;12272;52.426;17.100;2024-01-15T06:52:07;6.80;;;3.93;;
24090;SDS011;12272;52.426;17.100;2024-01-15T06:57:10;6.57;;;3.87;;
24090;SDS011;12272;52.426;17.100;2024-01-15T07:02:12;10.40;;;6.03;;
24090;SDS011;12272;52.426;17.100;2024-01-15T07:07:15;8.90;;;4.70;;
24090;SDS011;12272;52.426;17.100;2024-01-15T07:12:18;8.83;;;6.40;;
24090;SDS011;12272;52.426;17.100;2024-01-15T07:17:20;8.87;;;6.10;;
24090;SDS011;12272;52.426;17.100;2024-01-15T07:22:23;7.13;;;4.60;;
24090;SDS011;12272;52.426;17.100;2024-01-15T07:27:25;8.03;;;3.33;;
24090;SDS011;12272;52.426;17.100;2024-01-15T07:32:28;2.37;;;1.40;;
24090;SDS011;12272;52.426;17.100;2024-01-15T07:37:30;8.33;;;2.50;;
24090;SDS011;12272;52.426;17.100;2024-01-15T07:42:33;3.40;;;2.47;;
24090;SDS011;12272;52.426;17.100;2024-01-15T07:47:36;3.03;;;2.03;;
24090;SDS011;12272;52.426;17.100;2024-01-15T07:52:39;5.60;;;3.03;;
24090;SDS011;12272;52.426;17.100;2024-01-15T07:57:43;4.50;;;2.57;;
24090;SDS011;12272;52.426;17.100;2024-01-15T08:02:56;4.70;;;2.83;;
24090;SDS011;12272;52.426;17.100;2024-01-15T08:07:59;6.33;;;3.30;;
24090;SDS011;12272;52.426;17.100;2024-01-15T08:13:01;6.63;;;2.17;;
24090;SDS011;12272;52.426;17.100;2024-01-15T08:18:04;3.63;;;2.37;;
24090;SDS011;12272;52.426;17.100;2024-01-15T08:23:07;5.77;;;4.07;;
24090;SDS011;12272;52.426;17.100;2024-01-15T08:28:09;3.93;;;2.50;;
24090;SDS011;12272;52.426;17.100;2024-01-15T08:33:13;2.73;;;1.63;;
24090;SDS011;12272;52.426;17.100;2024-01-15T08:38:23;9.73;;;1.97;;
24090;SDS011;12272;52.426;17.100;2024-01-15T08:43:27;2.57;;;1.83;;
24090;SDS011;12272;52.426;17.100;2024-01-15T08:48:29;10.63;;;4.63;;
24090;SDS011;12272;52.426;17.100;2024-01-15T08:53:32;10.10;;;7.13;;
24090;SDS011;12272;52.426;17.100;2024-01-15T08:58:35;22.40;;;10.90;;
24090;SDS011;12272;52.426;17.100;2024-01-15T09:03:37;21.67;;;9.97;;
24090;SDS011;12272;52.426;17.100;2024-01-15T09:08:40;19.30;;;11.33;;
24090;SDS011;12272;52.426;17.100;2024-01-15T09:13:42;16.73;;;8.27;;
24090;SDS011;12272;52.426;17.100;2024-01-15T09:18:45;22.10;;;10.23;;
24090;SDS011;12272;52.426;17.100;2024-01-15T09:23:49;22.17;;;11.33;;
24090;SDS011;12272;52.426;17.100;2024-01-15T09:28:51;22.27;;;12.73;;
24090;SDS011;12272;52.426;17.100;2024-01-15T09:33:54;18.83;;;10.13;;
24090;SDS011;12272;52.426;17.100;2024-01-15T09:38:58;18.47;;;9.87;;
24090;SDS011;12272;52.426;17.100;2024-01-15T09:44:00;17.73;;;9.73;;
24090;SDS011;12272;52.426;17.100;2024-01-15T09:49:04;10.60;;;6.60;;
24090;SDS011;12272;52.426;17.100;2024-01-15T09:54:07;15.70;;;6.80;;
24090;SDS011;12272;52.426;17.100;2024-01-15T09:59:10;19.67;;;7.47;;
24090;SDS011;12272;52.426;17.100;2024-01-15T10:04:16;16.37;;;9.70;;
24090;SDS011;12272;52.426;17.100;2024-01-15T10:09:18;14.93;;;8.77;;
24090;SDS011;12272;52.426;17.100;2024-01-15T10:14:22;16.13;;;9.53;;
24090;SDS011;12272;52.426;17.100;2024-01-15T10:19:25;13.80;;;8.27;;
24090;SDS011;12272;52.426;17.100;2024-01-15T10:24:27;13.47;;;7.70;;
24090;SDS011;12272;52.426;17.100;2024-01-15T10:29:30;10.30;;;6.33;;
24090;SDS011;12272;52.426;17.100;2024-01-15T10:34:33;10.93;;;5.27;;
24090;SDS011;12272;52.426;17.100;2024-01-15T10:39:35;11.00;;;5.57;;
24090;SDS011;12272;52.426;17.100;2024-01-15T10:44:39;12.73;;;5.90;;
24090;SDS011;12272;52.426;17.100;2024-01-15T10:49:45;19.03;;;10.20;;
24090;SDS011;12272;52.426;17.100;2024-01-15T10:54:48;9.80;;;5.63;;
24090;SDS011;12272;52.426;17.100;2024-01-15T10:59:51;15.53;;;8.33;;
24090;SDS011;12272;52.426;17.100;2024-01-15T11:04:53;16.37;;;9.60;;
24090;SDS011;12272;52.426;17.100;2024-01-15T11:09:56;17.93;;;10.77;;
24090;SDS011;12272;52.426;17.100;2024-01-15T11:15:03;12.17;;;7.90;;
24090;SDS011;12272;52.426;17.100;2024-01-15T11:20:06;9.77;;;6.27;;
24090;SDS011;12272;52.426;17.100;2024-01-15T11:25:13;10.67;;;7.20;;
24090;SDS011;12272;52.426;17.100;2024-01-15T11:30:17;11.80;;;5.73;;
24090;SDS011;12272;52.426;17.100;2024-01-15T11:35:22;13.60;;;7.57;;
24090;SDS011;12272;52.426;17.100;2024-01-15T11:45:36;1.87;;;1.30;;
24090;SDS011;12272;52.426;17.100;2024-01-15T11:50:39;5.10;;;2.00;;
24090;SDS011;12272;52.426;17.100;2024-01-15T11:55:47;2.87;;;1.70;;
24090;SDS011;12272;52.426;17.100;2024-01-15T12:00:53;2.60;;;1.47;;
24090;SDS011;12272;52.426;17.100;2024-01-15T12:05:57;3.93;;;2.10;;
24090;SDS011;12272;52.426;17.100;2024-01-15T12:11:05;8.33;;;3.00;;
24090;SDS011;12272;52.426;17.100;2024-01-15T12:16:12;5.63;;;3.13;;
24090;SDS011;12272;52.426;17.100;2024-01-15T12:21:15;2.97;;;1.90;;
24090;SDS011;12272;52.426;17.100;2024-01-15T12:26:18;5.87;;;2.23;;
24090;SDS011;12272;52.426;17.100;2024-01-15T12:31:21;4.00;;;2.33;;
24090;SDS011;12272;52.426;17.100;2024-01-15T12:36:23;5.30;;;2.10;;
24090;SDS011;12272;52.426;17.100;2024-01-15T12:41:26;3.27;;;1.40;;
24090;SDS011;12272;52.426;17.100;2024-01-15T12:46:28;2.77;;;1.43;;
24090;SDS011;12272;52.426;17.100;2024-01-15T12:51:31;4.90;;;1.77;;
24090;SDS011;12272;52.426;17.100;2024-01-15T12:56:37;4.73;;;1.47;;
24090;SDS011;12272;52.426;17.100;2024-01-15T13:01:39;5.80;;;2.07;;
24090;SDS011;12272;52.426;17.100;2024-01-15T13:06:43;4.30;;;1.87;;
24090;SDS011;12272;52.426;17.100;2024-01-15T13:11:46;5.93;;;3.00;;
24090;SDS011;12272;52.426;17.100;2024-01-15T13:16:49;1.60;;;1.03;;
24090;SDS011;12272;52.426;17.100;2024-01-15T13:21:52;1.70;;;1.20;;
24090;SDS011;12272;52.426;17.100;2024-01-15T13:26:55;3.03;;;1.60;;
24090;SDS011;12272;52.426;17.100;2024-01-15T13:31:58;1.93;;;1.37;;
24090;SDS011;12272;52.426;17.100;2024-01-15T13:37:01;1.83;;;1.43;;
24090;SDS011;12272;52.426;17.100;2024-01-15T13:42:05;3.53;;;1.30;;
24090;SDS011;12272;52.426;17.100;2024-01-15T13:47:07;3.27;;;1.30;;
24090;SDS011;12272;52.426;17.100;2024-01-15T13:52:10;2.80;;;1.80;;
24090;SDS011;12272;52.426;17.100;2024-01-15T13:57:15;5.10;;;3.83;;
24090;SDS011;12272;52.426;17.100;2024-01-15T14:02:18;9.47;;;5.87;;
24090;SDS011;12272;52.426;17.100;2024-01-15T14:07:24;10.23;;;5.83;;
24090;SDS011;12272;52.426;17.100;2024-01-15T14:12:27;13.67;;;5.87;;
24090;SDS011;12272;52.426;17.100;2024-01-15T14:17:29;16.33;;;7.10;;
24090;SDS011;12272;52.426;17.100;2024-01-15T14:22:32;20.07;;;7.47;;
24090;SDS011;12272;52.426;17.100;2024-01-15T14:27:34;16.93;;;7.63;;
24090;SDS011;12272;52.426;17.100;2024-01-15T14:32:38;16.80;;;8.67;;
24090;SDS011;12272;52.426;17.100;2024-01-15T14:37:41;8.27;;;5.37;;
24090;SDS011;12272;52.426;17.100;2024-01-15T14:42:44;12.83;;;6.00;;
24090;SDS011;12272;52.426;17.100;2024-01-15T14:47:46;11.90;;;5.87;;
24090;SDS011;12272;52.426;17.100;2024-01-15T14:52:49;20.13;;;8.93;;
24090;SDS011;12272;52.426;17.100;2024-01-15T14:57:52;12.83;;;7.50;;
24090;SDS011;12272;52.426;17.100;2024-01-15T15:02:55;13.03;;;6.87;;
24090;SDS011;12272;52.426;17.100;2024-01-15T15:07:57;16.07;;;6.63;;
24090;SDS011;12272;52.426;17.100;2024-01-15T15:12:59;8.20;;;5.67;;
24090;SDS011;12272;52.426;17.100;2024-01-15T15:18:02;14.30;;;7.30;;
24090;SDS011;12272;52.426;17.100;2024-01-15T15:23:05;12.27;;;8.23;;
24090;SDS011;12272;52.426;17.100;2024-01-15T15:28:10;8.10;;;5.47;;
24090;SDS011;12272;52.426;17.100;2024-01-15T15:33:13;13.17;;;7.57;;
24090;SDS011;12272;52.426;17.100;2024-01-15T15:38:17;8.70;;;4.93;;
24090;SDS011;12272;52.426;17.100;2024-01-15T15:43:20;14.87;;;7.43;;
24090;SDS011;12272;52.426;17.100;2024-01-15T15:48:23;10.73;;;5.33;;
24090;SDS011;12272;52.426;17.100;2024-01-15T15:53:25;8.13;;;4.00;;
24090;SDS011;12272;52.426;17.100;2024-01-15T15:58:28;6.27;;;2.87;;
24090;SDS011;12272;52.426;17.100;2024-01-15T16:03:31;6.30;;;3.83;;
24090;SDS011;12272;52.426;17.100;2024-01-15T16:08:33;9.10;;;5.07;;
24090;SDS011;12272;52.426;17.100;2024-01-15T16:13:36;7.20;;;4.33;;
24090;SDS011;12272;52.426;17.100;2024-01-15T16:18:38;8.17;;;4.10;;
24090;SDS011;12272;52.426;17.100;2024-01-15T16:24:01;6.03;;;3.73;;
24090;SDS011;12272;52.426;17.100;2024-01-15T16:29:23;7.00;;;3.70;;
24090;SDS011;12272;52.426;17.100;2024-01-15T16:34:26;7.00;;;4.13;;
24090;SDS011;12272;52.426;17.100;2024-01-15T16:39:28;7.70;;;4.27;;
24090;SDS011;12272;52.426;17.100;2024-01-15T16:44:31;7.73;;;3.83;;
24090;SDS011;12272;52.426;17.100;2024-01-15T16:49:33;8.60;;;4.30;;
24090;SDS011;12272;52.426;17.100;2024-01-15T16:54:36;6.70;;;3.87;;
24090;SDS011;12272;52.426;17.100;2024-01-15T16:59:39;6.40;;;4.30;;
24090;SDS011;12272;52.426;17.100;2024-01-15T17:04:41;2.63;;;1.47;;
24090;SDS011;12272;52.426;17.100;2024-01-15T17:09:44;14.03;;;7.67;;
24090;SDS011;12272;52.426;17.100;2024-01-15T17:14:47;19.60;;;10.47;;
24090;SDS011;12272;52.426;17.100;2024-01-15T17:19:49;22.77;;;10.70;;
24090;SDS011;12272;52.426;17.100;2024-01-15T17:24:52;11.20;;;5.73;;
24090;SDS011;12272;52.426;17.100;2024-01-15T17:29:55;79.20;;;37.07;;
24090;SDS011;12272;52.426;17.100;2024-01-15T17:34:57;118.17;;;62.30;;
24090;SDS011;12272;52.426;17.100;2024-01-15T17:40:00;97.73;;;48.00;;
24090;SDS011;12272;52.426;17.100;2024-01-15T17:45:08;58.10;;;28.63;;
24090;SDS011;12272;52.426;17.100;2024-01-15T17:50:10;49.20;;;26.00;;
24090;SDS011;12272;52.426;17.100;2024-01-15T17:55:13;69.27;;;31.77;;
24090;SDS011;12272;52.426;17.100;2024-01-15T18:00:17;43.53;;;26.03;;
24090;SDS011;12272;52.426;17.100;2024-01-15T18:05:21;39.97;;;21.00;;
24090;SDS011;12272;52.426;17.100;2024-01-15T18:10:23;79.37;;;38.23;;
24090;SDS011;12272;52.426;17.100;2024-01-15T18:15:26;41.27;;;23.53;;
24090;SDS011;12272;52.426;17.100;2024-01-15T18:20:28;34.97;;;19.20;;
24090;SDS011;12272;52.426;17.100;2024-01-15T18:25:33;51.03;;;27.67;;
24090;SDS011;12272;52.426;17.100;2024-01-15T18:30:36;33.30;;;20.30;;
24090;SDS011;12272;52.426;17.100;2024-01-15T18:35:40;35.03;;;17.63;;
24090;SDS011;12272;52.426;17.100;2024-01-15T18:40:45;42.67;;;23.10;;
24090;SDS011;12272;52.426;17.100;2024-01-15T18:45:48;33.03;;;18.97;;
24090;SDS011;12272;52.426;17.100;2024-01-15T18:50:51;28.97;;;16.80;;
24090;SDS011;12272;52.426;17.100;2024-01-15T18:55:53;29.97;;;14.73;;
24090;SDS011;12272;52.426;17.100;2024-01-15T19:00:58;24.00;;;12.63;;
24090;SDS011;12272;52.426;17.100;2024-01-15T19:06:01;26.10;;;15.47;;
24090;SDS011;12272;52.426;17.100;2024-01-15T19:11:03;29.47;;;16.40;;
24090;SDS011;12272;52.426;17.100;2024-01-15T19:16:06;27.43;;;16.80;;
24090;SDS011;12272;52.426;17.100;2024-01-15T19:21:09;29.77;;;17.50;;
24090;SDS011;12272;52.426;17.100;2024-01-15T19:26:18;24.13;;;15.43;;
24090;SDS011;12272;52.426;17.100;2024-01-15T19:31:23;30.67;;;16.50;;
24090;SDS011;12272;52.426;17.100;2024-01-15T19:36:26;26.87;;;15.77;;
24090;SDS011;12272;52.426;17.100;2024-01-15T19:41:28;10.83;;;7.97;;
24090;SDS011;12272;52.426;17.100;2024-01-15T19:46:34;27.20;;;15.00;;
24090;SDS011;12272;52.426;17.100;2024-01-15T19:51:36;17.13;;;10.53;;
24090;SDS011;12272;52.426;17.100;2024-01-15T19:56:39;16.83;;;10.27;;
24090;SDS011;12272;52.426;17.100;2024-01-15T20:01:41;21.43;;;12.30;;
24090;SDS011;12272;52.426;17.100;2024-01-15T20:06:47;12.63;;;8.47;;
24090;SDS011;12272;52.426;17.100;2024-01-15T20:11:50;19.20;;;11.43;;
24090;SDS011;12272;52.426;17.100;2024-01-15T20:16:58;13.73;;;8.33;;
24090;SDS011;12272;52.426;17.100;2024-01-15T20:22:02;16.37;;;10.30;;
24090;SDS011;12272;52.426;17.100;2024-01-15T20:27:05;28.93;;;14.53;;
24090;SDS011;12272;52.426;17.100;2024-01-15T20:32:08;10.93;;;8.23;;
24090;SDS011;12272;52.426;17.100;2024-01-15T20:37:10;21.30;;;11.50;;
24090;SDS011;12272;52.426;17.100;2024-01-15T20:42:18;23.87;;;13.23;;
24090;SDS011;12272;52.426;17.100;2024-01-15T20:47:20;13.67;;;8.80;;
24090;SDS011;12272;52.426;17.100;2024-01-15T20:52:23;18.07;;;9.93;;
24090;SDS011;12272;52.426;17.100;2024-01-15T20:57:28;19.67;;;11.13;;
24090;SDS011;12272;52.426;17.100;2024-01-15T21:02:31;16.53;;;10.57;;
24090;SDS011;12272;52.426;17.100;2024-01-15T21:07:33;17.33;;;8.27;;
24090;SDS011;12272;52.426;17.100;2024-01-15T21:12:36;11.67;;;7.73;;
24090;SDS011;12272;52.426;17.100;2024-01-15T21:17:39;14.73;;;8.87;;
24090;SDS011;12272;52.426;17.100;2024-01-15T21:22:42;8.17;;;6.20;;
24090;SDS011;12272;52.426;17.100;2024-01-15T21:27:45;6.87;;;4.43;;
24090;SDS011;12272;52.426;17.100;2024-01-15T21:32:48;15.33;;;9.13;;
24090;SDS011;12272;52.426;17.100;2024-01-15T21:37:51;14.20;;;7.80;;
24090;SDS011;12272;52.426;17.100;2024-01-15T21:42:55;10.17;;;6.17;;
24090;SDS011;12272;52.426;17.100;2024-01-15T21:47:57;9.70;;;6.30;;
24090;SDS011;12272;52.426;17.100;2024-01-15T21:53:00;15.90;;;7.70;;
24090;SDS011;12272;52.426;17.100;2024-01-15T21:58:06;6.73;;;5.57;;
24090;SDS011;12272;52.426;17.100;2024-01-15T22:03:08;12.87;;;8.73;;
24090;SDS011;12272;52.426;17.100;2024-01-15T22:08:11;13.63;;;8.30;;
24090;SDS011;12272;52.426;17.100;2024-01-15T22:13:13;22.30;;;8.90;;
24090;SDS011;12272;52.426;17.100;2024-01-15T22:18:16;9.03;;;5.10;;
24090;SDS011;12272;52.426;17.100;2024-01-15T22:23:19;11.53;;;7.77;;
24090;SDS011;12272;52.426;17.100;2024-01-15T22:28:22;9.27;;;6.33;;
24090;SDS011;12272;52.426;17.100;2024-01-15T22:33:24;8.47;;;5.80;;
24090;SDS011;12272;52.426;17.100;2024-01-15T22:38:27;6.97;;;4.60;;
24090;SDS011;12272;52.426;17.100;2024-01-15T22:43:30;8.83;;;5.37;;
24090;SDS011;12272;52.426;17.100;2024-01-15T22:48:32;8.40;;;5.20;;
24090;SDS011;12272;52.426;17.100;2024-01-15T22:53:35;8.93;;;5.43;;
24090;SDS011;12272;52.426;17.100;2024-01-15T22:58:37;10.70;;;5.33;;
24090;SDS011;12272;52.426;17.100;2024-01-15T23:03:40;7.47;;;4.60;;
24090;SDS011;12272;52.426;17.100;2024-01-15T23:08:43;10.87;;;3.73;;
24090;SDS011;12272;52.426;17.100;2024-01-15T23:13:46;5.27;;;3.93;;
24090;SDS011;12272;52.426;17.100;2024-01-15T23:18:48;11.13;;;6.17;;
24090;SDS011;12272;52.426;17.100;2024-01-15T23:23:51;10.57;;;5.73;;
24090;SDS011;12272;52.426;17.100;2024-01-15T23:28:53;11.40;;;4.23;;
24090;SDS011;12272;52.426;17.100;2024-01-15T23:33:56;16.43;;;5.90;;
24090;SDS011;12272;52.426;17.100;2024-01-15T23:38:58;12.83;;;6.40;;
24090;SDS011;12272;52.426;17.100;2024-01-15T23:44:01;13.17;;;7.13;;
24090;SDS011;12272;52.426;17.100;2024-01-15T23:49:06;13.00;;;8.07;;
24090;SDS011;12272;52.426;17.100;2024-01-15T23:54:10;7.50;;;4.80;;
24090;SDS011;12272;52.426;17.100;2024-01-15T23:59:12;9.60;;;4.73;;
